createdAt,value
2019-01-27T00:00:24.348Z,0.00
2019-01-27T00:01:24.318Z,0.00
2019-01-27T00:02:24.357Z,0.00
2019-01-27T00:03:24.252Z,0.00
2019-01-27T00:04:24.218Z,0.00
2019-01-27T00:05:24.183Z,0.00
2019-01-27T00:06:24.207Z,0.00
2019-01-27T00:07:24.172Z,0.00
2019-01-27T00:08:24.084Z,0.00
2019-01-27T00:09:24.047Z,0.00
2019-01-27T00:10:24.018Z,0.00
2019-01-27T00:11:24.029Z,0.00
2019-01-27T00:12:23.987Z,0.00
2019-01-27T00:13:23.912Z,0.00
2019-01-27T00:14:23.878Z,0.00
2019-01-27T00:15:23.851Z,0.00
2019-01-27T00:16:23.866Z,0.00
2019-01-27T00:17:23.780Z,0.00
2019-01-27T00:18:23.755Z,0.00
2019-01-27T00:19:23.752Z,0.00
2019-01-27T00:20:23.682Z,0.00
2019-01-27T00:21:23.699Z,0.00
2019-01-27T00:22:23.612Z,0.00
2019-01-27T00:23:23.633Z,0.00
2019-01-27T00:24:23.545Z,0.00
2019-01-27T00:25:23.510Z,0.00
2019-01-27T00:26:23.518Z,0.00
2019-01-27T00:27:23.489Z,0.00
2019-01-27T00:28:23.448Z,0.00
2019-01-27T00:29:23.423Z,0.00
2019-01-27T00:30:23.344Z,0.00
2019-01-27T00:31:23.310Z,0.00
2019-01-27T00:32:23.325Z,0.00
2019-01-27T00:33:23.827Z,0.00
2019-01-27T00:34:23.209Z,0.00
2019-01-27T00:35:23.177Z,0.00
2019-01-27T00:36:23.184Z,0.00
2019-01-27T00:37:23.161Z,0.00
2019-01-27T00:38:23.073Z,0.00
2019-01-27T00:39:23.041Z,0.00
2019-01-27T00:40:23.011Z,0.00
2019-01-27T00:41:23.734Z,0.00
2019-01-27T00:42:23.010Z,0.00
2019-01-27T00:43:22.971Z,0.00
2019-01-27T00:44:22.882Z,0.00
2019-01-27T00:45:22.843Z,0.00
2019-01-27T00:46:22.937Z,0.00
2019-01-27T00:47:22.779Z,0.00
2019-01-27T00:48:22.787Z,0.00
2019-01-27T00:49:23.328Z,0.00
2019-01-27T00:50:22.714Z,0.00
2019-01-27T00:51:22.687Z,0.00
2019-01-27T00:52:22.606Z,0.00
2019-01-27T00:53:22.574Z,0.00
2019-01-27T00:54:22.539Z,0.00
2019-01-27T00:55:22.573Z,0.00
2019-01-27T00:56:22.472Z,0.00
2019-01-27T00:57:22.440Z,0.00
2019-01-27T00:58:22.400Z,0.00
2019-01-27T00:59:22.425Z,0.00
2019-01-27T01:00:22.357Z,0.00
2019-01-27T01:01:22.343Z,0.00
2019-01-27T01:02:22.277Z,0.00
2019-01-27T01:03:22.273Z,0.00
2019-01-27T01:04:22.201Z,0.00
2019-01-27T01:05:22.169Z,0.00
2019-01-27T01:06:24.236Z,0.00
2019-01-27T01:07:22.166Z,0.00
2019-01-27T01:08:22.066Z,0.00
2019-01-27T01:09:22.029Z,0.00
2019-01-27T01:10:22.006Z,0.00
2019-01-27T01:11:21.964Z,0.00
2019-01-27T01:12:21.997Z,0.00
2019-01-27T01:13:21.901Z,0.00
2019-01-27T01:14:21.872Z,0.00
2019-01-27T01:15:21.870Z,0.00
2019-01-27T01:16:21.796Z,0.00
2019-01-27T01:17:21.808Z,0.00
2019-01-27T01:18:21.774Z,0.00
2019-01-27T01:19:21.739Z,0.00
2019-01-27T01:20:22.331Z,0.00
2019-01-27T01:21:21.628Z,0.00
2019-01-27T01:22:21.599Z,0.00
2019-01-27T01:23:21.558Z,0.00
2019-01-27T01:24:21.577Z,0.00
2019-01-27T01:25:21.546Z,0.00
2019-01-27T01:26:21.459Z,0.00
2019-01-27T01:27:21.426Z,0.00
2019-01-27T01:28:21.408Z,0.00
2019-01-27T01:29:21.404Z,0.00
2019-01-27T01:30:21.377Z,0.00
2019-01-27T01:31:21.289Z,0.00
2019-01-27T01:32:21.258Z,0.00
2019-01-27T01:33:21.243Z,0.00
2019-01-27T01:34:21.189Z,0.00
2019-01-27T01:35:21.203Z,0.00
2019-01-27T01:36:21.123Z,0.00
2019-01-27T01:37:21.090Z,0.00
2019-01-27T01:38:21.055Z,0.00
2019-01-27T01:39:21.388Z,0.00
2019-01-27T01:40:20.992Z,0.00
2019-01-27T01:41:20.999Z,0.00
2019-01-27T01:42:20.934Z,0.00
2019-01-27T01:43:20.904Z,0.00
2019-01-27T01:44:20.862Z,0.00
2019-01-27T01:45:20.816Z,0.00
2019-01-27T01:46:20.838Z,0.00
2019-01-27T01:47:20.756Z,0.00
2019-01-27T01:48:20.719Z,0.00
2019-01-27T01:49:20.682Z,0.00
2019-01-27T01:50:20.666Z,0.00
2019-01-27T01:51:20.658Z,0.00
2019-01-27T01:52:20.586Z,0.00
2019-01-27T01:53:22.242Z,0.00
2019-01-27T01:54:20.519Z,0.00
2019-01-27T01:55:20.485Z,0.00
2019-01-27T01:56:20.447Z,0.00
2019-01-27T01:57:20.416Z,0.00
2019-01-27T01:58:20.444Z,0.00
2019-01-27T01:59:20.344Z,0.00
2019-01-27T02:00:20.313Z,0.00
2019-01-27T02:01:20.278Z,0.00
2019-01-27T02:02:20.288Z,0.00
2019-01-27T02:03:20.218Z,0.00
2019-01-27T02:04:20.179Z,0.00
2019-01-27T02:05:20.143Z,0.00
2019-01-27T02:06:20.159Z,0.00
2019-01-27T02:07:20.087Z,0.00
2019-01-27T02:08:20.160Z,0.00
2019-01-27T02:09:20.013Z,0.00
2019-01-27T02:10:19.979Z,0.00
2019-01-27T02:11:19.943Z,0.00
2019-01-27T02:12:19.974Z,0.00
2019-01-27T02:13:19.917Z,0.00
2019-01-27T02:14:19.842Z,0.00
2019-01-27T02:15:19.813Z,0.00
2019-01-27T02:16:19.782Z,0.00
2019-01-27T02:17:19.809Z,0.00
2019-01-27T02:18:19.709Z,0.00
2019-01-27T02:19:19.671Z,0.00
2019-01-27T02:20:19.644Z,0.00
2019-01-27T02:21:19.657Z,0.00
2019-01-27T02:22:19.571Z,0.00
2019-01-27T02:23:19.538Z,0.00
2019-01-27T02:24:19.535Z,0.00
2019-01-27T02:25:19.474Z,0.00
2019-01-27T02:26:19.483Z,0.00
2019-01-27T02:27:19.406Z,0.00
2019-01-27T02:28:19.420Z,0.00
2019-01-27T02:29:19.340Z,0.00
2019-01-27T02:30:19.315Z,0.00
2019-01-27T02:31:19.271Z,0.00
2019-01-27T02:32:19.238Z,0.00
2019-01-27T02:33:19.247Z,0.00
2019-01-27T02:34:19.215Z,0.00
2019-01-27T02:35:19.135Z,0.00
2019-01-27T02:36:19.103Z,0.00
2019-01-27T02:37:19.096Z,0.00
2019-01-27T02:38:19.034Z,0.00
2019-01-27T02:39:19.044Z,0.00
2019-01-27T02:40:18.968Z,0.00
2019-01-27T02:41:18.933Z,0.00
2019-01-27T02:42:18.908Z,0.00
2019-01-27T02:43:18.870Z,0.00
2019-01-27T02:44:18.878Z,0.00
2019-01-27T02:45:18.801Z,0.00
2019-01-27T02:46:18.777Z,0.00
2019-01-27T02:47:18.730Z,0.00
2019-01-27T02:48:18.696Z,0.00
2019-01-27T02:49:18.707Z,0.00
2019-01-27T02:50:18.681Z,0.00
2019-01-27T02:51:19.362Z,0.00
2019-01-27T02:52:18.560Z,0.00
2019-01-27T02:53:18.600Z,0.00
2019-01-27T02:54:18.493Z,0.00
2019-01-27T02:55:18.506Z,0.00
2019-01-27T02:56:18.465Z,0.00
2019-01-27T02:57:18.396Z,0.00
2019-01-27T02:58:18.359Z,0.00
2019-01-27T02:59:18.326Z,0.00
2019-01-27T03:00:18.357Z,0.00
2019-01-27T03:01:18.323Z,0.00
2019-01-27T03:02:18.768Z,0.00
2019-01-27T03:03:18.229Z,0.00
2019-01-27T03:04:18.157Z,0.00
2019-01-27T03:05:18.123Z,0.00
2019-01-27T03:06:18.130Z,0.00
2019-01-27T03:07:18.061Z,0.00
2019-01-27T03:08:18.018Z,0.00
2019-01-27T03:09:17.993Z,0.00
2019-01-27T03:10:18.021Z,0.00
2019-01-27T03:11:17.961Z,0.00
2019-01-27T03:12:17.974Z,0.00
2019-01-27T03:13:18.848Z,0.00
2019-01-27T03:14:17.873Z,0.00
2019-01-27T03:15:18.344Z,0.00
2019-01-27T03:16:17.752Z,0.00
2019-01-27T03:17:18.753Z,0.00
2019-01-27T03:18:17.689Z,0.00
2019-01-27T03:19:17.645Z,0.00
2019-01-27T03:20:17.617Z,0.00
2019-01-27T03:21:17.593Z,0.00
2019-01-27T03:22:17.620Z,0.00
2019-01-27T03:23:18.342Z,0.00
2019-01-27T03:24:17.477Z,0.00
2019-01-27T03:25:17.445Z,0.00
2019-01-27T03:26:17.411Z,0.00
2019-01-27T03:27:17.426Z,0.00
2019-01-27T03:28:17.399Z,0.00
2019-01-27T03:29:17.309Z,0.00
2019-01-27T03:30:17.296Z,0.00
2019-01-27T03:31:17.244Z,0.00
2019-01-27T03:32:17.248Z,0.00
2019-01-27T03:33:17.404Z,0.00
2019-01-27T03:34:17.184Z,0.00
2019-01-27T03:35:17.112Z,0.00
2019-01-27T03:36:17.070Z,0.00
2019-01-27T03:37:17.041Z,0.00
2019-01-27T03:38:17.005Z,0.00
2019-01-27T03:39:17.013Z,0.00
2019-01-27T03:40:16.957Z,0.00
2019-01-27T03:41:16.900Z,0.00
2019-01-27T03:42:16.909Z,0.00
2019-01-27T03:43:16.837Z,0.00
2019-01-27T03:44:17.344Z,0.00
2019-01-27T03:45:16.827Z,0.00
2019-01-27T03:46:16.730Z,0.00
2019-01-27T03:47:16.695Z,0.00
2019-01-27T03:48:16.666Z,0.00
2019-01-27T03:49:16.631Z,0.00
2019-01-27T03:50:16.638Z,0.00
2019-01-27T03:51:16.557Z,0.00
2019-01-27T03:52:17.356Z,0.00
2019-01-27T03:53:16.493Z,0.00
2019-01-27T03:54:16.461Z,0.00
2019-01-27T03:55:16.489Z,0.00
2019-01-27T03:56:16.388Z,0.00
2019-01-27T03:57:16.419Z,0.00
2019-01-27T03:58:16.320Z,0.00
2019-01-27T03:59:16.289Z,0.00
2019-01-27T04:00:16.253Z,0.00
2019-01-27T04:01:16.218Z,0.00
2019-01-27T04:02:16.232Z,0.00
2019-01-27T04:03:16.188Z,0.00
2019-01-27T04:04:16.181Z,0.00
2019-01-27T04:05:16.084Z,0.00
2019-01-27T04:06:16.049Z,0.00
2019-01-27T04:07:16.074Z,0.00
2019-01-27T04:08:15.981Z,0.00
2019-01-27T04:09:15.989Z,0.00
2019-01-27T04:10:15.910Z,0.00
2019-01-27T04:11:15.876Z,0.00
2019-01-27T04:12:15.875Z,0.00
2019-01-27T04:13:15.825Z,0.00
2019-01-27T04:14:15.820Z,0.00
2019-01-27T04:15:15.740Z,0.00
2019-01-27T04:16:15.709Z,0.00
2019-01-27T04:17:15.725Z,0.00
2019-01-27T04:18:16.357Z,0.00
2019-01-27T04:19:15.670Z,0.00
2019-01-27T04:20:15.576Z,0.00
2019-01-27T04:21:15.537Z,0.00
2019-01-27T04:22:15.553Z,0.00
2019-01-27T04:23:15.522Z,0.00
2019-01-27T04:24:15.490Z,0.00
2019-01-27T04:25:15.450Z,0.00
2019-01-27T04:26:16.350Z,0.00
2019-01-27T04:27:15.362Z,0.00
2019-01-27T04:28:15.299Z,0.00
2019-01-27T04:29:15.305Z,0.00
2019-01-27T04:30:15.228Z,0.00
2019-01-27T04:31:15.193Z,0.00
2019-01-27T04:32:15.202Z,0.00
2019-01-27T04:33:15.136Z,0.00
2019-01-27T04:34:15.407Z,0.00
2019-01-27T04:35:15.059Z,0.00
2019-01-27T04:36:15.080Z,0.00
2019-01-27T04:37:14.988Z,0.00
2019-01-27T04:38:14.956Z,0.00
2019-01-27T04:39:15.399Z,0.00
2019-01-27T04:40:14.890Z,0.00
2019-01-27T04:41:14.900Z,0.00
2019-01-27T04:42:14.822Z,0.00
2019-01-27T04:43:14.797Z,0.00
2019-01-27T04:44:14.761Z,0.00
2019-01-27T04:45:14.719Z,0.00
2019-01-27T04:46:14.926Z,0.00
2019-01-27T04:47:14.651Z,0.00
2019-01-27T04:48:14.625Z,0.00
2019-01-27T04:49:14.582Z,0.00
2019-01-27T04:50:14.548Z,0.00
2019-01-27T04:51:14.920Z,0.00
2019-01-27T04:52:14.479Z,0.00
2019-01-27T04:53:14.454Z,0.00
2019-01-27T04:54:14.421Z,0.00
2019-01-27T04:55:14.378Z,0.00
2019-01-27T04:56:14.404Z,0.00
2019-01-27T04:57:14.309Z,0.00
2019-01-27T04:58:14.348Z,0.00
2019-01-27T04:59:14.242Z,0.00
2019-01-27T05:00:14.206Z,0.00
2019-01-27T05:01:14.214Z,0.00
2019-01-27T05:02:21.234Z,0.00
2019-01-27T05:03:14.113Z,0.00
2019-01-27T05:04:14.119Z,0.00
2019-01-27T05:05:14.040Z,0.00
2019-01-27T05:06:14.002Z,0.00
2019-01-27T05:07:13.969Z,0.00
2019-01-27T05:08:13.942Z,0.00
2019-01-27T05:09:13.952Z,0.00
2019-01-27T05:10:14.383Z,0.00
2019-01-27T05:11:13.837Z,0.00
2019-01-27T05:12:13.846Z,0.00
2019-01-27T05:13:13.774Z,0.00
2019-01-27T05:14:13.742Z,0.00
2019-01-27T05:15:13.748Z,0.00
2019-01-27T05:16:13.668Z,0.00
2019-01-27T05:17:13.634Z,0.00
2019-01-27T05:18:13.716Z,0.00
2019-01-27T05:19:13.567Z,0.00
2019-01-27T05:20:13.533Z,0.00
2019-01-27T05:21:14.380Z,0.00
2019-01-27T05:22:13.464Z,0.00
2019-01-27T05:23:13.482Z,0.00
2019-01-27T05:24:13.429Z,0.00
2019-01-27T05:25:13.410Z,0.00
2019-01-27T05:26:13.893Z,0.00
2019-01-27T05:27:13.292Z,0.00
2019-01-27T05:28:13.262Z,0.00
2019-01-27T05:29:13.285Z,0.00
2019-01-27T05:30:13.877Z,0.00
2019-01-27T05:31:13.161Z,0.00
2019-01-27T05:32:13.122Z,0.00
2019-01-27T05:33:13.090Z,0.00
2019-01-27T05:34:13.196Z,0.00
2019-01-27T05:35:13.019Z,0.00
2019-01-27T05:36:12.986Z,0.00
2019-01-27T05:37:12.951Z,0.00
2019-01-27T05:38:12.920Z,0.00
2019-01-27T05:39:12.928Z,0.00
2019-01-27T05:40:12.854Z,0.00
2019-01-27T05:41:12.864Z,0.00
2019-01-27T05:42:12.783Z,0.00
2019-01-27T05:43:12.751Z,0.00
2019-01-27T05:44:12.788Z,0.00
2019-01-27T05:45:13.287Z,0.00
2019-01-27T05:46:12.647Z,0.00
2019-01-27T05:47:12.612Z,0.00
2019-01-27T05:48:12.585Z,0.00
2019-01-27T05:49:12.576Z,0.00
2019-01-27T05:50:12.553Z,0.00
2019-01-27T05:51:13.380Z,0.00
2019-01-27T05:52:12.444Z,0.00
2019-01-27T05:53:12.450Z,0.00
2019-01-27T05:54:12.378Z,0.00
2019-01-27T05:55:12.342Z,0.00
2019-01-27T05:56:12.454Z,0.00
2019-01-27T05:57:12.271Z,0.00
2019-01-27T05:58:12.238Z,0.00
2019-01-27T05:59:12.943Z,0.00
2019-01-27T06:00:12.168Z,0.00
2019-01-27T06:01:12.193Z,0.00
2019-01-27T06:02:12.888Z,0.00
2019-01-27T06:03:12.067Z,0.00
2019-01-27T06:04:12.074Z,0.00
2019-01-27T06:05:11.998Z,0.00
2019-01-27T06:06:11.967Z,0.00
2019-01-27T06:07:12.436Z,0.00
2019-01-27T06:08:11.897Z,0.00
2019-01-27T06:09:11.915Z,0.00
2019-01-27T06:10:11.831Z,0.00
2019-01-27T06:11:12.389Z,0.00
2019-01-27T06:12:11.806Z,0.00
2019-01-27T06:13:11.725Z,0.00
2019-01-27T06:14:11.697Z,0.00
2019-01-27T06:15:14.387Z,0.00
2019-01-27T06:16:11.621Z,0.00
2019-01-27T06:17:11.591Z,0.00
2019-01-27T06:18:11.563Z,0.00
2019-01-27T06:19:11.577Z,0.00
2019-01-27T06:20:11.488Z,0.00
2019-01-27T06:21:11.459Z,0.00
2019-01-27T06:22:11.420Z,0.00
2019-01-27T06:23:11.404Z,0.00
2019-01-27T06:24:11.394Z,0.00
2019-01-27T06:25:11.437Z,0.00
2019-01-27T06:26:11.289Z,0.00
2019-01-27T06:27:11.253Z,4.00
2019-01-27T06:28:11.224Z,4.00
2019-01-27T06:29:11.230Z,4.00
2019-01-27T06:30:11.148Z,4.00
2019-01-27T06:31:11.181Z,4.00
2019-01-27T06:32:11.095Z,4.00
2019-01-27T06:33:11.043Z,4.00
2019-01-27T06:34:11.015Z,8.00
2019-01-27T06:35:10.976Z,8.00
2019-01-27T06:36:10.984Z,8.00
2019-01-27T06:37:10.911Z,12.00
2019-01-27T06:38:10.895Z,12.00
2019-01-27T06:39:10.854Z,12.00
2019-01-27T06:40:10.850Z,12.00
2019-01-27T06:41:10.867Z,12.00
2019-01-27T06:42:11.385Z,20.00
2019-01-27T06:43:10.712Z,20.00
2019-01-27T06:44:10.676Z,24.00
2019-01-27T06:45:10.698Z,24.00
2019-01-27T06:46:10.621Z,32.00
2019-01-27T06:47:10.574Z,40.00
2019-01-27T06:48:10.545Z,48.00
2019-01-27T06:49:10.532Z,48.00
2019-01-27T06:50:10.519Z,48.00
2019-01-27T06:51:11.390Z,56.00
2019-01-27T06:52:10.395Z,60.00
2019-01-27T06:53:10.363Z,64.00
2019-01-27T06:54:10.332Z,68.00
2019-01-27T06:55:10.339Z,72.00
2019-01-27T06:56:10.304Z,76.00
2019-01-27T06:57:10.225Z,76.00
2019-01-27T06:58:10.205Z,80.00
2019-01-27T06:59:10.163Z,76.00
2019-01-27T07:00:10.124Z,80.00
2019-01-27T07:01:10.134Z,88.00
2019-01-27T07:02:10.058Z,96.00
2019-01-27T07:03:10.046Z,104.00
2019-01-27T07:04:10.001Z,108.00
2019-01-27T07:05:09.960Z,116.00
2019-01-27T07:06:09.964Z,124.00
2019-01-27T07:07:09.892Z,136.00
2019-01-27T07:08:09.865Z,148.00
2019-01-27T07:09:09.824Z,156.00
2019-01-27T07:10:09.836Z,160.00
2019-01-27T07:11:09.799Z,168.00
2019-01-27T07:12:09.713Z,176.00
2019-01-27T07:13:09.682Z,188.00
2019-01-27T07:14:09.645Z,200.00
2019-01-27T07:15:09.659Z,236.00
2019-01-27T07:16:09.579Z,268.00
2019-01-27T07:17:10.387Z,280.00
2019-01-27T07:18:09.573Z,288.00
2019-01-27T07:19:09.526Z,300.00
2019-01-27T07:20:09.449Z,316.00
2019-01-27T07:21:09.447Z,328.00
2019-01-27T07:22:09.887Z,316.00
2019-01-27T07:23:09.392Z,300.00
2019-01-27T07:24:09.320Z,284.00
2019-01-27T07:25:09.345Z,296.00
2019-01-27T07:26:09.242Z,340.00
2019-01-27T07:27:09.897Z,408.00
2019-01-27T07:28:09.179Z,488.00
2019-01-27T07:29:09.141Z,556.00
2019-01-27T07:30:09.151Z,572.00
2019-01-27T07:31:09.074Z,588.00
2019-01-27T07:32:09.036Z,620.00
2019-01-27T07:33:09.010Z,680.00
2019-01-27T07:34:08.969Z,748.00
2019-01-27T07:35:08.984Z,760.00
2019-01-27T07:36:08.913Z,740.00
2019-01-27T07:37:08.913Z,732.00
2019-01-27T07:38:08.848Z,704.00
2019-01-27T07:39:08.801Z,712.00
2019-01-27T07:40:08.771Z,756.00
2019-01-27T07:41:08.739Z,820.00
2019-01-27T07:42:08.754Z,856.00
2019-01-27T07:43:08.673Z,872.00
2019-01-27T07:44:08.634Z,844.00
2019-01-27T07:45:08.600Z,780.00
2019-01-27T07:46:08.568Z,748.00
2019-01-27T07:47:08.589Z,740.00
2019-01-27T07:48:08.543Z,736.00
2019-01-27T07:49:08.466Z,708.00
2019-01-27T07:50:08.441Z,672.00
2019-01-27T07:51:08.446Z,652.00
2019-01-27T07:52:08.363Z,668.00
2019-01-27T07:53:08.333Z,736.00
2019-01-27T07:54:08.343Z,852.00
2019-01-27T07:55:08.270Z,980.00
2019-01-27T07:56:08.232Z,1088.00
2019-01-27T07:57:08.267Z,1208.00
2019-01-27T07:58:08.858Z,1340.00
2019-01-27T07:59:08.127Z,1504.00
2019-01-27T08:00:08.148Z,1708.00
2019-01-27T08:01:08.061Z,1900.00
2019-01-27T08:02:08.084Z,2068.00
2019-01-27T08:03:12.105Z,2232.00
2019-01-27T08:04:08.049Z,2376.00
2019-01-27T08:05:07.937Z,2536.00
2019-01-27T08:06:07.890Z,2760.00
2019-01-27T08:07:07.916Z,2936.00
2019-01-27T08:08:07.831Z,2928.00
2019-01-27T08:09:07.809Z,2784.00
2019-01-27T08:10:07.763Z,2720.00
2019-01-27T08:11:07.750Z,2804.00
2019-01-27T08:12:07.748Z,3036.00
2019-01-27T08:13:07.658Z,3408.00
2019-01-27T08:14:07.689Z,3780.00
2019-01-27T08:15:07.600Z,4008.00
2019-01-27T08:16:07.573Z,4032.00
2019-01-27T08:17:07.571Z,4088.00
2019-01-27T08:18:07.493Z,4120.00
2019-01-27T08:19:07.460Z,3996.00
2019-01-27T08:20:07.427Z,3816.00
2019-01-27T08:21:07.447Z,3688.00
2019-01-27T08:22:07.364Z,3604.00
2019-01-27T08:23:07.336Z,3620.00
2019-01-27T08:24:07.347Z,3672.00
2019-01-27T08:25:07.262Z,3640.00
2019-01-27T08:26:07.229Z,3488.00
2019-01-27T08:27:07.246Z,3208.00
2019-01-27T08:28:07.166Z,2884.00
2019-01-27T08:29:07.131Z,2544.00
2019-01-27T08:30:07.098Z,2200.00
2019-01-27T08:31:07.116Z,1900.00
2019-01-27T08:32:07.076Z,1716.00
2019-01-27T08:33:07.054Z,1660.00
2019-01-27T08:34:06.978Z,1644.00
2019-01-27T08:35:06.937Z,1684.00
2019-01-27T08:36:06.908Z,1864.00
2019-01-27T08:37:06.875Z,2336.00
2019-01-27T08:38:06.883Z,2996.00
2019-01-27T08:39:06.802Z,3652.00
2019-01-27T08:40:06.780Z,4144.00
2019-01-27T08:41:06.739Z,4352.00
2019-01-27T08:42:06.849Z,4340.00
2019-01-27T08:43:06.720Z,4212.00
2019-01-27T08:44:07.401Z,4060.00
2019-01-27T08:45:06.669Z,3912.00
2019-01-27T08:46:06.583Z,3812.00
2019-01-27T08:47:06.607Z,3724.00
2019-01-27T08:48:06.514Z,3728.00
2019-01-27T08:49:06.480Z,3804.00
2019-01-27T08:50:06.485Z,3872.00
2019-01-27T08:51:06.419Z,3908.00
2019-01-27T08:52:06.427Z,3976.00
2019-01-27T08:53:06.419Z,4172.00
2019-01-27T08:54:06.353Z,4492.00
2019-01-27T08:55:06.315Z,4812.00
2019-01-27T08:56:06.271Z,4996.00
2019-01-27T08:57:06.244Z,5060.00
2019-01-27T08:58:06.184Z,5100.00
2019-01-27T08:59:06.217Z,5096.00
2019-01-27T09:00:06.138Z,5116.00
2019-01-27T09:01:06.091Z,5172.00
2019-01-27T09:02:06.809Z,5152.00
2019-01-27T09:03:06.060Z,5072.00
2019-01-27T09:04:06.008Z,5044.00
2019-01-27T09:05:05.971Z,5012.00
2019-01-27T09:06:05.968Z,4928.00
2019-01-27T09:07:05.939Z,4824.00
2019-01-27T09:08:06.409Z,4760.00
2019-01-27T09:09:05.861Z,4740.00
2019-01-27T09:10:05.804Z,4720.00
2019-01-27T09:11:05.761Z,4656.00
2019-01-27T09:12:05.736Z,4592.00
2019-01-27T09:13:11.173Z,4632.00
2019-01-27T09:14:05.668Z,4728.00
2019-01-27T09:15:05.644Z,4692.00
2019-01-27T09:16:05.629Z,4484.00
2019-01-27T09:17:05.579Z,4404.00
2019-01-27T09:18:05.604Z,4388.00
2019-01-27T09:19:05.504Z,4324.00
2019-01-27T09:20:05.517Z,4276.00
2019-01-27T09:21:05.455Z,4236.00
2019-01-27T09:22:05.466Z,4224.00
2019-01-27T09:23:05.375Z,4364.00
2019-01-27T09:24:05.940Z,4636.00
2019-01-27T09:25:05.320Z,4604.00
2019-01-27T09:26:05.285Z,4312.00
2019-01-27T09:27:05.307Z,4156.00
2019-01-27T09:28:05.217Z,4056.00
2019-01-27T09:29:05.187Z,4412.00
2019-01-27T09:30:05.160Z,5440.00
2019-01-27T09:31:05.143Z,5928.00
2019-01-27T09:32:05.130Z,6036.00
2019-01-27T09:33:05.054Z,6288.00
2019-01-27T09:34:05.036Z,6756.00
2019-01-27T09:35:04.999Z,6616.00
2019-01-27T09:36:04.962Z,6336.00
2019-01-27T09:37:05.470Z,5920.00
2019-01-27T09:38:04.915Z,5452.00
2019-01-27T09:39:04.878Z,6436.00
2019-01-27T09:40:04.831Z,6936.00
2019-01-27T09:41:04.803Z,6856.00
2019-01-27T09:42:04.865Z,6632.00
2019-01-27T09:43:04.748Z,6380.00
2019-01-27T09:44:04.751Z,6188.00
2019-01-27T09:45:04.709Z,5728.00
2019-01-27T09:46:07.752Z,5032.00
2019-01-27T09:47:04.618Z,4068.00
2019-01-27T09:48:04.589Z,3860.00
2019-01-27T09:49:04.558Z,4696.00
2019-01-27T09:50:04.543Z,5460.00
2019-01-27T09:51:04.973Z,5788.00
2019-01-27T09:52:04.463Z,5984.00
2019-01-27T09:53:04.434Z,6176.00
2019-01-27T09:54:04.474Z,6320.00
2019-01-27T09:55:04.393Z,5828.00
2019-01-27T09:56:04.367Z,5616.00
2019-01-27T09:57:04.311Z,5512.00
2019-01-27T09:58:04.331Z,5472.00
2019-01-27T09:59:04.243Z,5328.00
2019-01-27T10:00:04.211Z,4880.00
2019-01-27T10:01:04.198Z,4620.00
2019-01-27T10:02:04.169Z,4320.00
2019-01-27T10:03:04.174Z,4052.00
2019-01-27T10:04:04.923Z,4024.00
2019-01-27T10:05:04.079Z,4152.00
2019-01-27T10:06:04.024Z,4276.00
2019-01-27T10:07:04.141Z,4256.00
2019-01-27T10:08:03.954Z,4176.00
2019-01-27T10:09:03.940Z,4168.00
2019-01-27T10:10:03.915Z,4272.00
2019-01-27T10:11:03.941Z,4492.00
2019-01-27T10:12:04.433Z,4768.00
2019-01-27T10:13:04.422Z,5036.00
2019-01-27T10:14:03.843Z,5220.00
2019-01-27T10:15:03.779Z,5244.00
2019-01-27T10:16:03.730Z,5052.00
2019-01-27T10:17:03.734Z,4736.00
2019-01-27T10:18:03.652Z,4456.00
2019-01-27T10:19:03.668Z,4336.00
2019-01-27T10:20:03.612Z,4444.00
2019-01-27T10:21:03.566Z,4560.00
2019-01-27T10:22:03.994Z,4652.00
2019-01-27T10:23:03.604Z,4600.00
2019-01-27T10:24:03.465Z,4596.00
2019-01-27T10:25:03.444Z,4572.00
2019-01-27T10:26:03.434Z,4396.00
2019-01-27T10:27:03.433Z,4204.00
2019-01-27T10:28:03.390Z,4064.00
2019-01-27T10:29:03.306Z,3852.00
2019-01-27T10:30:03.313Z,3748.00
2019-01-27T10:31:03.246Z,3420.00
2019-01-27T10:32:03.315Z,3508.00
2019-01-27T10:33:03.178Z,3256.00
2019-01-27T10:34:03.156Z,3368.00
2019-01-27T10:35:03.114Z,3204.00
2019-01-27T10:36:03.165Z,3000.00
2019-01-27T10:37:03.055Z,2836.00
2019-01-27T10:38:03.026Z,2784.00
2019-01-27T10:39:03.045Z,2828.00
2019-01-27T10:40:09.119Z,2884.00
2019-01-27T10:41:02.946Z,2944.00
2019-01-27T10:42:08.823Z,3072.00
2019-01-27T10:43:02.882Z,3276.00
2019-01-27T10:44:02.835Z,3772.00
2019-01-27T10:45:02.867Z,4288.00
2019-01-27T10:46:02.831Z,4692.00
2019-01-27T10:47:02.775Z,5324.00
2019-01-27T10:48:02.849Z,5820.00
2019-01-27T10:49:02.687Z,5888.00
2019-01-27T10:50:02.736Z,5760.00
2019-01-27T10:51:02.679Z,5584.00
2019-01-27T10:52:02.584Z,5992.00
2019-01-27T10:53:02.551Z,6700.00
2019-01-27T10:54:02.595Z,7184.00
2019-01-27T10:55:09.327Z,6864.00
2019-01-27T10:56:02.471Z,6448.00
2019-01-27T10:57:02.424Z,6116.00
2019-01-27T10:58:02.394Z,6288.00
2019-01-27T10:59:02.412Z,6292.00
2019-01-27T11:00:02.921Z,5804.00
2019-01-27T11:01:02.315Z,6016.00
2019-01-27T11:02:02.323Z,6720.00
2019-01-27T11:03:02.257Z,8532.00
2019-01-27T11:04:02.263Z,10468.00
2019-01-27T11:05:02.231Z,12272.00
2019-01-27T11:06:02.962Z,13416.00
2019-01-27T11:07:02.226Z,13584.00
2019-01-27T11:08:02.131Z,13492.00
2019-01-27T11:09:02.104Z,13836.00
2019-01-27T11:10:02.016Z,13712.00
2019-01-27T11:11:01.983Z,13372.00
2019-01-27T11:12:01.982Z,12956.00
2019-01-27T11:13:01.925Z,12488.00
2019-01-27T11:14:01.964Z,12040.00
2019-01-27T11:15:01.866Z,11768.00
2019-01-27T11:16:01.869Z,11464.00
2019-01-27T11:17:01.830Z,10876.00
2019-01-27T11:18:01.800Z,10196.00
2019-01-27T11:19:01.781Z,9384.00
2019-01-27T11:20:01.773Z,8728.00
2019-01-27T11:21:01.681Z,8316.00
2019-01-27T11:22:01.669Z,8060.00
2019-01-27T11:23:01.637Z,7924.00
2019-01-27T11:24:01.588Z,8016.00
2019-01-27T11:25:01.597Z,8176.00
2019-01-27T11:26:01.871Z,8012.00
2019-01-27T11:27:08.330Z,7736.00
2019-01-27T11:28:01.468Z,7336.00
2019-01-27T11:29:01.481Z,6512.00
2019-01-27T11:30:07.330Z,5968.00
2019-01-27T11:31:01.427Z,5860.00
2019-01-27T11:32:01.352Z,5764.00
2019-01-27T11:33:02.567Z,5484.00
2019-01-27T11:34:01.310Z,5016.00
2019-01-27T11:35:01.295Z,4512.00
2019-01-27T11:36:01.266Z,3984.00
2019-01-27T11:37:01.195Z,3548.00
2019-01-27T11:38:01.184Z,3312.00
2019-01-27T11:39:01.134Z,3272.00
2019-01-27T11:40:01.106Z,3292.00
2019-01-27T11:41:01.115Z,3320.00
2019-01-27T11:42:01.039Z,3176.00
2019-01-27T11:43:01.011Z,2960.00
2019-01-27T11:44:01.001Z,2940.00
2019-01-27T11:45:00.950Z,3108.00
2019-01-27T11:46:01.000Z,3088.00
2019-01-27T11:47:00.888Z,3016.00
2019-01-27T11:48:00.856Z,3076.00
2019-01-27T11:49:01.429Z,3332.00
2019-01-27T11:50:00.797Z,3972.00
2019-01-27T11:51:00.808Z,4816.00
2019-01-27T11:52:00.774Z,5076.00
2019-01-27T11:53:00.743Z,4908.00
2019-01-27T11:54:00.668Z,4556.00
2019-01-27T11:55:00.642Z,4312.00
2019-01-27T11:56:00.651Z,4244.00
2019-01-27T11:57:00.595Z,4408.00
2019-01-27T11:58:00.591Z,4780.00
2019-01-27T11:59:00.512Z,5344.00
2019-01-27T12:00:00.485Z,5792.00
2019-01-27T12:01:00.473Z,5848.00
2019-01-27T12:02:00.927Z,5860.00
2019-01-27T12:03:00.524Z,5924.00
2019-01-27T12:04:01.335Z,6000.00
2019-01-27T12:05:00.322Z,6032.00
2019-01-27T12:06:00.301Z,5988.00
2019-01-27T12:07:00.263Z,5920.00
2019-01-27T12:08:00.227Z,6040.00
2019-01-27T12:09:00.287Z,6372.00
2019-01-27T12:10:00.207Z,6744.00
2019-01-27T12:11:00.133Z,7056.00
2019-01-27T12:12:00.117Z,7312.00
2019-01-27T12:13:00.997Z,7628.00
2019-01-27T12:14:00.045Z,7844.00
2019-01-27T12:15:00.248Z,7552.00
2019-01-27T12:15:59.979Z,7208.00
2019-01-27T12:16:59.958Z,6812.00
2019-01-27T12:17:59.916Z,6804.00
2019-01-27T12:18:59.882Z,6840.00
2019-01-27T12:19:59.939Z,6604.00
2019-01-27T12:20:59.836Z,6348.00
2019-01-27T12:21:59.803Z,6316.00
2019-01-27T12:22:59.778Z,6316.00
2019-01-27T12:23:59.750Z,6472.00
2019-01-27T12:24:59.773Z,6524.00
2019-01-27T12:26:00.450Z,6736.00
2019-01-27T12:26:59.640Z,6820.00
2019-01-27T12:27:59.617Z,7052.00
2019-01-27T12:28:59.600Z,6996.00
2019-01-27T12:29:59.598Z,6632.00
2019-01-27T12:30:59.554Z,6628.00
2019-01-27T12:31:59.496Z,7168.00
2019-01-27T12:32:59.463Z,7392.00
2019-01-27T12:33:59.478Z,7280.00
2019-01-27T12:34:59.395Z,6996.00
2019-01-27T12:35:59.372Z,6712.00
2019-01-27T12:36:59.346Z,6616.00
2019-01-27T12:37:59.307Z,6760.00
2019-01-27T12:38:59.316Z,6428.00
2019-01-27T12:39:59.273Z,5768.00
2019-01-27T12:40:59.208Z,5716.00
2019-01-27T12:41:59.199Z,5540.00
2019-01-27T12:42:59.191Z,5216.00
2019-01-27T12:43:59.178Z,5104.00